Time;durP1;ratioP1;P1;durP2;ratioP2;P2;SDS_P1;SDS_P2;PMS_P1;PMS_P2;Temp;Humidity;BMP_temperature;BMP_pressure;BME280_temperature;BME280_humidity;BME280_pressure;Samples;Min_cycle;Max_cycle;Signal;HPM_P1;HPM_P2
2023/03/17 00:01:50;;;;;;;4.20;3.60;;;;;;;;;;5008441;28;20057;-59
2023/03/17 00:04:18;;;;;;;3.70;3.03;;;;;;;;;;5007147;28;20402;-59
2023/03/17 00:06:45;;;;;;;4.43;3.50;;;;;;;;;;5011733;28;20049;-59
2023/03/17 00:09:15;;;;;;;3.80;3.00;;;;;;;;;;5010201;28;20053;-59
2023/03/17 00:11:43;;;;;;;7.05;3.08;;;;;;;;;;5011580;28;20391;-60
2023/03/17 00:14:10;;;;;;;5.15;3.53;;;;;;;;;;5009466;28;20487;-60
2023/03/17 00:16:49;;;;;;;4.88;3.20;;;;;;;;;;5012544;28;20037;-59
2023/03/17 00:19:16;;;;;;;;;;;;;;;;;;5007705;28;20045;-59
2023/03/17 00:21:44;;;;;;;3.95;2.95;;;;;;;;;;5009834;28;20485;-60
2023/03/17 00:24:11;;;;;;;4.90;3.22;;;;;;;;;;5008435;28;20025;-60
2023/03/17 00:26:37;;;;;;;5.05;3.30;;;;;;;;;;5006513;28;20048;-59
2023/03/17 00:29:04;;;;;;;5.38;3.22;;;;;;;;;;5006210;28;20033;-59
2023/03/17 00:31:33;;;;;;;4.03;3.03;;;;;;;;;;5009324;28;20447;-58
2023/03/17 00:33:59;;;;;;;3.95;3.05;;;;;;;;;;5011964;28;20045;-58
2023/03/17 00:36:28;;;;;;;5.22;3.30;;;;;;;;;;5009603;28;20255;-59
2023/03/17 00:38:54;;;;;;;5.60;2.87;;;;;;;;;;5008017;28;20038;-59
2023/03/17 00:41:21;;;;;;;6.63;3.30;;;;;;;;;;5013082;28;20415;-60
2023/03/17 00:43:48;;;;;;;5.50;3.78;;;;;;;;;;5011237;28;20033;-59
2023/03/17 00:46:18;;;;;;;3.97;3.00;;;;;;;;;;5008397;28;20054;-61
2023/03/17 00:48:45;;;;;;;5.00;3.42;;;;;;;;;;5008637;28;20064;-59
2023/03/17 00:51:11;;;;;;;5.10;3.35;;;;;;;;;;5009204;28;20046;-59
2023/03/17 00:53:38;;;;;;;5.32;3.72;;;;;;;;;;5014397;28;20042;-59
2023/03/17 00:56:12;;;;;;;5.05;3.20;;;;;;;;;;5008989;28;20030;-58
2023/03/17 00:58:38;;;;;;;4.97;3.30;;;;;;;;;;5014726;28;20496;-59
2023/03/17 01:01:05;;;;;;;7.22;3.65;;;;;;;;;;5009600;28;20022;-60
2023/03/17 01:03:31;;;;;;;5.53;3.00;;;;;;;;;;5013469;28;20496;-59
2023/03/17 01:05:58;;;;;;;3.58;2.88;;;;;;;;;;5010001;28;20458;-60
2023/03/17 01:08:25;;;;;;;5.65;3.10;;;;;;;;;;5013138;28;20026;-59
2023/03/17 01:10:51;;;;;;;6.60;3.35;;;;;;;;;;5010195;28;20506;-59
2023/03/17 01:13:18;;;;;;;6.75;4.80;;;;;;;;;;5010774;28;20069;-61
2023/03/17 01:15:47;;;;;;;10.00;5.70;;;;;;;;;;5014036;28;20520;-59
2023/03/17 01:18:14;;;;;;;9.00;5.93;;;;;;;;;;5011216;28;20082;-59
2023/03/17 01:20:41;;;;;;;9.93;6.55;;;;;;;;;;5010561;28;20419;-60
2023/03/17 01:23:09;;;;;;;9.73;6.38;;;;;;;;;;5011721;28;20044;-59
2023/03/17 01:25:37;;;;;;;8.27;5.40;;;;;;;;;;5011940;28;20049;-59
2023/03/17 01:28:04;;;;;;;6.25;4.03;;;;;;;;;;5010611;28;20423;-59
2023/03/17 01:30:37;;;;;;;6.45;4.40;;;;;;;;;;5008678;28;20046;-59
2023/03/17 01:33:05;;;;;;;5.97;4.00;;;;;;;;;;5012479;28;20049;-60
2023/03/17 01:35:31;;;;;;;10.60;6.25;;;;;;;;;;5009045;28;20049;-60
2023/03/17 01:37:58;;;;;;;20.95;10.00;;;;;;;;;;5013582;28;20391;-60
2023/03/17 01:40:27;;;;;;;15.38;8.45;;;;;;;;;;5009396;28;20438;-59
2023/03/17 01:43:16;;;;;;;4.97;3.87;;;;;;;;;;5010096;28;20246;-58
2023/03/17 01:46:16;;;;;;;4.35;3.20;;;;;;;;;;5009319;28;20041;-60
2023/03/17 01:48:49;;;;;;;5.55;3.53;;;;;;;;;;5011639;28;20038;-59
2023/03/17 01:51:51;;;;;;;5.47;3.67;;;;;;;;;;5010497;28;20037;-59
2023/03/17 01:54:33;;;;;;;10.65;6.53;;;;;;;;;;5010038;28;20045;-59
2023/03/17 01:57:06;;;;;;;14.35;8.65;;;;;;;;;;5009748;28;20416;-59
2023/03/17 01:59:38;;;;;;;16.55;9.45;;;;;;;;;;5010783;28;20403;-59
2023/03/17 02:02:09;;;;;;;17.85;8.80;;;;;;;;;;5010017;28;20049;-58
2023/03/17 02:04:37;;;;;;;16.50;9.57;;;;;;;;;;5007448;28;20541;-59
2023/03/17 02:07:04;;;;;;;14.75;9.05;;;;;;;;;;5013306;28;20392;-58
2023/03/17 02:09:32;;;;;;;16.33;9.18;;;;;;;;;;5007499;28;20034;-59
2023/03/17 02:12:00;;;;;;;19.65;10.52;;;;;;;;;;5015309;28;20033;-58
2023/03/17 02:14:26;;;;;;;17.20;10.23;;;;;;;;;;5015644;28;20057;-59
2023/03/17 02:16:52;;;;;;;17.90;9.93;;;;;;;;;;5011771;28;20431;-59
2023/03/17 02:19:19;;;;;;;16.27;9.32;;;;;;;;;;5009741;28;20523;-60
2023/03/17 02:21:48;;;;;;;17.75;9.95;;;;;;;;;;5007388;28;20504;-60
2023/03/17 02:24:30;;;;;;;17.90;9.75;;;;;;;;;;5007137;28;20033;-58
2023/03/17 02:27:02;;;;;;;16.83;9.48;;;;;;;;;;5007775;28;20041;-60
2023/03/17 02:29:33;;;;;;;16.63;9.27;;;;;;;;;;5003204;28;20053;-58
2023/03/17 02:32:01;;;;;;;19.02;9.93;;;;;;;;;;5009492;28;20045;-60
2023/03/17 02:34:30;;;;;;;16.45;10.25;;;;;;;;;;5017668;28;20046;-59
2023/03/17 02:36:57;;;;;;;16.77;9.10;;;;;;;;;;5008075;28;20427;-58
2023/03/17 02:39:24;;;;;;;16.27;9.75;;;;;;;;;;5012144;28;20049;-59
2023/03/17 02:41:51;;;;;;;20.85;9.48;;;;;;;;;;5012859;28;20117;-59
2023/03/17 02:44:18;;;;;;;16.55;9.10;;;;;;;;;;5010887;28;20034;-58
2023/03/17 02:46:44;;;;;;;15.65;9.25;;;;;;;;;;5011595;28;20518;-58
2023/03/17 02:49:10;;;;;;;21.27;10.18;;;;;;;;;;5009821;28;20060;-60
2023/03/17 02:51:37;;;;;;;17.58;9.70;;;;;;;;;;5012897;28;20042;-60
2023/03/17 02:54:03;;;;;;;17.08;9.48;;;;;;;;;;5010808;28;20057;-59
2023/03/17 02:56:29;;;;;;;17.65;9.77;;;;;;;;;;5009317;28;20037;-59
2023/03/17 02:58:56;;;;;;;17.52;9.65;;;;;;;;;;5006852;28;20046;-59
2023/03/17 03:01:22;;;;;;;19.20;9.30;;;;;;;;;;5009091;28;20033;-58
2023/03/17 03:03:48;;;;;;;16.15;9.77;;;;;;;;;;5013125;28;20042;-59
2023/03/17 03:06:15;;;;;;;19.42;9.35;;;;;;;;;;5009678;28;20053;-59
2023/03/17 03:08:41;;;;;;;18.73;10.50;;;;;;;;;;5007400;28;20041;-59
2023/03/17 03:11:08;;;;;;;18.92;9.77;;;;;;;;;;5004454;28;20045;-59
2023/03/17 03:13:35;;;;;;;14.93;8.65;;;;;;;;;;5002967;28;20056;-59
2023/03/17 03:16:01;;;;;;;23.17;11.90;;;;;;;;;;5016349;28;20049;-58
2023/03/17 03:18:27;;;;;;;17.23;10.90;;;;;;;;;;5010309;28;20034;-59
2023/03/17 03:20:53;;;;;;;17.55;9.85;;;;;;;;;;5009972;28;20038;-58
2023/03/17 03:23:20;;;;;;;17.30;10.05;;;;;;;;;;5009158;28;20037;-60
2023/03/17 03:25:46;;;;;;;18.17;9.88;;;;;;;;;;5007041;28;20068;-60
2023/03/17 03:28:13;;;;;;;16.58;10.07;;;;;;;;;;5002520;28;20037;-58
2023/03/17 03:30:40;;;;;;;18.20;9.70;;;;;;;;;;4996710;28;20026;-59
2023/03/17 03:33:06;;;;;;;14.20;9.13;;;;;;;;;;5011309;28;20431;-58
2023/03/17 03:35:34;;;;;;;16.45;9.05;;;;;;;;;;5011275;28;20034;-59
2023/03/17 03:38:00;;;;;;;9.82;6.10;;;;;;;;;;5010969;28;20522;-58
2023/03/17 03:40:27;;;;;;;9.85;5.03;;;;;;;;;;5010373;28;20045;-59
2023/03/17 03:42:53;;;;;;;10.55;5.13;;;;;;;;;;5010728;28;20038;-59
2023/03/17 03:45:19;;;;;;;7.00;4.25;;;;;;;;;;5009606;28;20038;-59
2023/03/17 03:47:45;;;;;;;11.25;5.10;;;;;;;;;;5008877;28;20050;-60
2023/03/17 03:50:12;;;;;;;14.25;7.38;;;;;;;;;;5009280;28;20034;-59
2023/03/17 03:52:38;;;;;;;12.13;5.38;;;;;;;;;;5008712;28;20049;-58
2023/03/17 03:55:05;;;;;;;15.25;8.60;;;;;;;;;;5009621;28;20576;-60
2023/03/17 03:57:31;;;;;;;16.85;9.27;;;;;;;;;;5009476;28;20042;-59
2023/03/17 03:59:57;;;;;;;15.77;8.65;;;;;;;;;;5008203;28;20041;-59
2023/03/17 04:02:24;;;;;;;17.75;9.65;;;;;;;;;;5011960;28;20034;-59
2023/03/17 04:04:50;;;;;;;18.67;9.63;;;;;;;;;;5005682;28;20046;-59
2023/03/17 04:07:16;;;;;;;20.40;10.00;;;;;;;;;;5004774;28;20034;-60
2023/03/17 04:09:42;;;;;;;14.88;8.43;;;;;;;;;;5006232;28;20057;-59
2023/03/17 04:12:09;;;;;;;17.85;9.30;;;;;;;;;;5009339;28;20030;-59
2023/03/17 04:14:35;;;;;;;17.95;8.73;;;;;;;;;;5010239;28;20029;-59
2023/03/17 04:17:01;;;;;;;18.33;9.40;;;;;;;;;;5008276;28;20149;-59
2023/03/17 04:19:28;;;;;;;17.02;8.35;;;;;;;;;;5004352;28;20057;-59
2023/03/17 04:21:55;;;;;;;18.20;9.52;;;;;;;;;;5008305;28;20249;-60
2023/03/17 04:24:21;;;;;;;18.38;9.75;;;;;;;;;;5006697;28;20037;-59
2023/03/17 04:26:47;;;;;;;22.02;10.90;;;;;;;;;;5008315;28;20045;-59
2023/03/17 04:29:14;;;;;;;22.73;10.52;;;;;;;;;;5008849;28;20411;-59
2023/03/17 04:31:41;;;;;;;19.75;9.90;;;;;;;;;;5009010;28;20427;-59
2023/03/17 04:34:14;;;;;;;24.50;10.70;;;;;;;;;;5013596;28;20045;-59
2023/03/17 04:36:41;;;;;;;21.60;10.57;;;;;;;;;;5008591;28;20045;-59
2023/03/17 04:39:07;;;;;;;18.73;9.48;;;;;;;;;;5008446;28;20045;-59
2023/03/17 04:41:34;;;;;;;20.40;9.82;;;;;;;;;;5008270;28;20025;-60
2023/03/17 04:44:00;;;;;;;18.80;10.15;;;;;;;;;;5007977;28;20391;-58
2023/03/17 04:46:26;;;;;;;31.08;11.07;;;;;;;;;;5007060;28;20033;-58
2023/03/17 04:48:52;;;;;;;19.05;9.60;;;;;;;;;;5008313;28;20052;-58
2023/03/17 04:51:19;;;;;;;23.58;10.77;;;;;;;;;;5008553;28;20046;-60
2023/03/17 04:53:45;;;;;;;30.48;12.45;;;;;;;;;;5008517;28;20048;-60
2023/03/17 04:56:11;;;;;;;18.80;9.27;;;;;;;;;;5007133;28;20396;-59
2023/03/17 04:58:38;;;;;;;10.10;4.15;;;;;;;;;;5011138;28;20045;-59
2023/03/17 05:01:05;;;;;;;7.38;3.53;;;;;;;;;;5005793;28;20042;-59
2023/03/17 05:03:32;;;;;;;7.30;3.05;;;;;;;;;;5004618;28;20053;-58
2023/03/17 05:05:58;;;;;;;6.53;3.22;;;;;;;;;;5013130;28;20050;-59
2023/03/17 05:08:25;;;;;;;6.85;3.03;;;;;;;;;;5009133;28;20408;-59
2023/03/17 05:10:51;;;;;;;6.07;3.33;;;;;;;;;;5005515;28;20061;-59
2023/03/17 05:13:18;;;;;;;6.13;2.83;;;;;;;;;;5010669;28;20034;-58
2023/03/17 05:15:48;;;;;;;5.53;2.80;;;;;;;;;;5002421;28;20037;-59
2023/03/17 05:18:15;;;;;;;5.95;2.75;;;;;;;;;;5001945;28;20054;-58
2023/03/17 05:20:41;;;;;;;5.80;2.63;;;;;;;;;;5002417;28;20042;-59
2023/03/17 05:23:07;;;;;;;6.75;2.70;;;;;;;;;;5007477;28;20033;-59
2023/03/17 05:25:33;;;;;;;6.40;2.65;;;;;;;;;;5006747;28;20037;-58
2023/03/17 05:28:00;;;;;;;5.90;2.83;;;;;;;;;;5006188;28;20045;-59
2023/03/17 05:30:26;;;;;;;8.98;2.80;;;;;;;;;;5007886;28;20419;-58
2023/03/17 05:32:53;;;;;;;4.53;2.63;;;;;;;;;;5010315;28;20046;-59
2023/03/17 05:35:19;;;;;;;5.68;3.10;;;;;;;;;;5011940;28;20634;-58
2023/03/17 05:37:45;;;;;;;3.40;2.30;;;;;;;;;;5012023;28;20065;-59
2023/03/17 05:40:13;;;;;;;4.30;2.38;;;;;;;;;;5009502;28;20384;-59
2023/03/17 05:42:40;;;;;;;4.38;2.25;;;;;;;;;;5013693;28;20057;-60
2023/03/17 05:45:07;;;;;;;5.03;2.22;;;;;;;;;;5011581;28;20418;-59
2023/03/17 05:47:35;;;;;;;4.60;2.22;;;;;;;;;;5013314;28;20052;-58
2023/03/17 05:50:02;;;;;;;4.60;2.42;;;;;;;;;;5011232;28;20038;-59
2023/03/17 05:52:28;;;;;;;5.03;1.90;;;;;;;;;;5012750;28;20041;-58
2023/03/17 05:54:54;;;;;;;5.25;2.35;;;;;;;;;;5013574;28;20037;-61
2023/03/17 05:57:21;;;;;;;5.15;2.10;;;;;;;;;;5010111;28;20045;-58
2023/03/17 05:59:47;;;;;;;3.35;2.00;;;;;;;;;;5008504;28;20496;-59
2023/03/17 06:02:14;;;;;;;3.25;1.92;;;;;;;;;;5011195;28;20057;-60
2023/03/17 06:04:40;;;;;;;4.70;2.20;;;;;;;;;;5012125;28;20117;-58
2023/03/17 06:07:08;;;;;;;5.80;2.78;;;;;;;;;;5008918;28;20041;-61
2023/03/17 06:09:34;;;;;;;18.85;10.02;;;;;;;;;;5011193;28;20046;-61
2023/03/17 06:12:01;;;;;;;23.05;12.75;;;;;;;;;;5006225;28;20399;-60
2023/03/17 06:14:27;;;;;;;20.95;11.90;;;;;;;;;;5015367;28;20049;-61
2023/03/17 06:16:53;;;;;;;20.50;10.80;;;;;;;;;;5011194;28;20416;-61
2023/03/17 06:19:20;;;;;;;20.05;11.25;;;;;;;;;;5006110;28;20495;-61
2023/03/17 06:21:47;;;;;;;20.20;11.43;;;;;;;;;;5007280;28;20113;-61
2023/03/17 06:24:13;;;;;;;20.95;12.35;;;;;;;;;;5007765;28;20067;-60
2023/03/17 06:26:41;;;;;;;22.90;13.65;;;;;;;;;;5004987;28;20037;-59
2023/03/17 06:29:11;;;;;;;22.73;13.75;;;;;;;;;;5009437;28;20060;-60
2023/03/17 06:31:38;;;;;;;22.85;12.95;;;;;;;;;;5009758;28;20411;-60
2023/03/17 06:34:04;;;;;;;26.38;13.85;;;;;;;;;;5009660;28;20503;-60
2023/03/17 06:36:32;;;;;;;26.83;14.10;;;;;;;;;;5010229;28;20100;-60
2023/03/17 06:38:59;;;;;;;30.30;15.95;;;;;;;;;;5009668;28;20117;-60
2023/03/17 06:41:26;;;;;;;31.35;15.95;;;;;;;;;;5011052;28;20062;-60
2023/03/17 06:43:52;;;;;;;22.48;11.57;;;;;;;;;;5011747;28;20398;-60
2023/03/17 06:46:18;;;;;;;23.95;13.48;;;;;;;;;;5005949;28;20041;-60
2023/03/17 06:48:44;;;;;;;29.75;15.40;;;;;;;;;;5001096;28;20033;-60
2023/03/17 06:51:11;;;;;;;25.48;14.73;;;;;;;;;;5009794;28;20065;-61
2023/03/17 06:53:37;;;;;;;31.05;16.60;;;;;;;;;;5006642;28;20050;-60
2023/03/17 06:56:06;;;;;;;29.77;16.17;;;;;;;;;;5002645;28;20046;-61
2023/03/17 06:58:32;;;;;;;27.92;15.15;;;;;;;;;;5010587;28;20487;-60
2023/03/17 07:00:59;;;;;;;21.52;13.32;;;;;;;;;;5010268;28;20487;-60
2023/03/17 07:03:26;;;;;;;25.25;13.25;;;;;;;;;;5012167;28;20495;-60
2023/03/17 07:05:53;;;;;;;25.83;13.00;;;;;;;;;;5008661;28;20038;-60
2023/03/17 07:08:20;;;;;;;29.00;12.52;;;;;;;;;;5008183;28;20045;-60
2023/03/17 07:10:47;;;;;;;23.10;12.50;;;;;;;;;;5007466;28;20590;-60
2023/03/17 07:13:13;;;;;;;22.25;11.68;;;;;;;;;;5004625;28;20053;-60
2023/03/17 07:15:40;;;;;;;23.25;12.25;;;;;;;;;;5007466;28;20044;-60
2023/03/17 07:18:07;;;;;;;26.42;12.75;;;;;;;;;;5012587;28;20391;-61
2023/03/17 07:20:33;;;;;;;24.35;12.30;;;;;;;;;;5003985;28;20427;-60
2023/03/17 07:22:59;;;;;;;24.90;11.68;;;;;;;;;;5008535;28;20026;-61
2023/03/17 07:25:25;;;;;;;22.50;12.13;;;;;;;;;;5001893;28;20054;-62
2023/03/17 07:27:52;;;;;;;19.92;11.43;;;;;;;;;;5010017;28;20034;-61
2023/03/17 07:30:18;;;;;;;22.48;11.43;;;;;;;;;;5009092;28;20038;-61
2023/03/17 07:32:45;;;;;;;20.35;11.48;;;;;;;;;;5008740;28;20054;-61
2023/03/17 07:35:12;;;;;;;23.08;11.85;;;;;;;;;;5006794;28;20395;-61
2023/03/17 07:37:38;;;;;;;19.85;11.18;;;;;;;;;;5008555;28;20029;-61
2023/03/17 07:40:05;;;;;;;22.98;11.50;;;;;;;;;;5007763;28;20050;-61
2023/03/17 07:42:32;;;;;;;18.55;10.75;;;;;;;;;;5005276;28;20527;-61
2023/03/17 07:44:58;;;;;;;22.48;12.13;;;;;;;;;;5014951;28;20041;-61
2023/03/17 07:47:24;;;;;;;21.73;12.43;;;;;;;;;;5012790;28;20049;-61
2023/03/17 07:49:51;;;;;;;28.42;13.30;;;;;;;;;;5003871;28;20407;-61
2023/03/17 07:52:17;;;;;;;25.13;12.27;;;;;;;;;;5006127;28;20052;-63
2023/03/17 07:54:43;;;;;;;25.38;13.55;;;;;;;;;;5007670;28;20049;-60
2023/03/17 07:57:10;;;;;;;24.35;13.07;;;;;;;;;;5007324;28;20653;-60
2023/03/17 07:59:38;;;;;;;28.02;12.75;;;;;;;;;;5008091;28;20503;-60
2023/03/17 08:02:05;;;;;;;22.15;12.20;;;;;;;;;;5005229;28;20672;-61
2023/03/17 08:04:33;;;;;;;25.08;12.68;;;;;;;;;;5009586;28;20068;-61
2023/03/17 08:07:00;;;;;;;22.40;11.85;;;;;;;;;;5010437;28;20054;-61
2023/03/17 08:09:26;;;;;;;24.90;12.27;;;;;;;;;;5004728;28;20042;-61
2023/03/17 08:11:52;;;;;;;23.52;11.75;;;;;;;;;;5005944;28;20056;-61
2023/03/17 08:14:18;;;;;;;19.60;10.82;;;;;;;;;;5011987;28;20030;-61
2023/03/17 08:16:44;;;;;;;23.60;11.65;;;;;;;;;;5008109;28;20041;-61
2023/03/17 08:19:11;;;;;;;27.10;12.02;;;;;;;;;;5006452;28;20392;-61
2023/03/17 08:21:37;;;;;;;23.17;11.45;;;;;;;;;;5005717;28;20050;-64
2023/03/17 08:24:04;;;;;;;19.50;10.82;;;;;;;;;;5005791;28;20472;-61
2023/03/17 08:26:31;;;;;;;18.40;10.82;;;;;;;;;;5007886;28;20395;-62
2023/03/17 08:28:57;;;;;;;22.08;11.20;;;;;;;;;;5006767;28;20060;-61
2023/03/17 08:31:23;;;;;;;19.85;11.07;;;;;;;;;;5007857;28;20030;-66
2023/03/17 08:33:51;;;;;;;21.33;10.95;;;;;;;;;;5004412;28;20037;-62
2023/03/17 08:36:19;;;;;;;21.85;11.35;;;;;;;;;;5006279;28;20086;-65
2023/03/17 08:38:46;;;;;;;21.98;10.90;;;;;;;;;;5004088;28;20045;-61
2023/03/17 08:41:17;;;;;;;22.75;10.32;;;;;;;;;;5005038;28;20030;-61
2023/03/17 08:43:43;;;;;;;20.83;10.43;;;;;;;;;;5007986;28;20041;-61
2023/03/17 08:46:25;;;;;;;20.92;9.77;;;;;;;;;;5009561;28;20041;-64
2023/03/17 08:48:55;;;;;;;14.70;9.02;;;;;;;;;;5006494;28;20046;-61
2023/03/17 08:51:26;;;;;;;18.45;8.98;;;;;;;;;;5007891;28;20048;-62
2023/03/17 08:53:53;;;;;;;17.05;8.93;;;;;;;;;;5002905;28;20404;-61
2023/03/17 08:56:21;;;;;;;19.20;9.43;;;;;;;;;;5009070;28;20046;-61
2023/03/17 08:58:48;;;;;;;21.73;9.35;;;;;;;;;;5005519;28;20054;-64
2023/03/17 09:01:15;;;;;;;18.30;9.55;;;;;;;;;;5007103;28;20381;-63
2023/03/17 09:03:42;;;;;;;21.63;10.65;;;;;;;;;;5006433;28;20121;-61
2023/03/17 09:06:11;;;;;;;22.90;11.73;;;;;;;;;;5005280;28;20045;-63
2023/03/17 09:08:40;;;;;;;22.08;12.15;;;;;;;;;;5004935;28;20041;-61
2023/03/17 09:11:08;;;;;;;24.63;12.33;;;;;;;;;;5010595;28;20029;-61
2023/03/17 09:13:36;;;;;;;24.52;11.68;;;;;;;;;;5010764;28;20285;-61
2023/03/17 09:16:02;;;;;;;21.77;11.35;;;;;;;;;;5008808;28;20045;-62
2023/03/17 09:18:30;;;;;;;18.20;9.55;;;;;;;;;;5008023;28;20045;-61
2023/03/17 09:20:56;;;;;;;19.90;9.68;;;;;;;;;;5009985;28;20637;-61
2023/03/17 09:23:23;;;;;;;22.38;8.75;;;;;;;;;;5011440;28;20501;-61
2023/03/17 09:25:50;;;;;;;18.40;9.85;;;;;;;;;;5010919;28;20046;-61
2023/03/17 09:28:17;;;;;;;18.58;8.07;;;;;;;;;;5009646;28;20063;-62
2023/03/17 09:30:44;;;;;;;17.90;8.93;;;;;;;;;;5010670;28;20037;-61
2023/03/17 09:33:11;;;;;;;16.48;9.27;;;;;;;;;;5013505;28;20033;-61
2023/03/17 09:35:39;;;;;;;19.33;9.68;;;;;;;;;;5010441;28;20041;-61
2023/03/17 09:38:06;;;;;;;16.25;9.40;;;;;;;;;;5010981;28;20050;-61
2023/03/17 09:40:38;;;;;;;17.20;9.32;;;;;;;;;;5010896;28;20053;-61
2023/03/17 09:43:31;;;;;;;19.88;9.50;;;;;;;;;;5009321;28;20046;-62
2023/03/17 09:46:11;;;;;;;17.40;9.32;;;;;;;;;;5011257;28;20046;-62
2023/03/17 09:48:56;;;;;;;17.70;10.00;;;;;;;;;;5012487;28;20037;-61
2023/03/17 09:51:22;;;;;;;16.48;8.45;;;;;;;;;;5007984;28;20026;-62
2023/03/17 09:54:01;;;;;;;15.63;8.27;;;;;;;;;;5007747;28;20407;-62
2023/03/17 09:56:31;;;;;;;18.55;8.65;;;;;;;;;;5008383;28;20045;-61
2023/03/17 09:59:26;;;;;;;16.00;7.80;;;;;;;;;;4991645;28;20045;-62
2023/03/17 10:01:52;;;;;;;12.20;6.82;;;;;;;;;;5007727;28;20033;-62
2023/03/17 10:04:19;;;;;;;16.10;8.18;;;;;;;;;;5009334;28;20037;-62
2023/03/17 10:06:46;;;;;;;11.90;6.72;;;;;;;;;;5007545;28;20519;-62
2023/03/17 10:09:56;;;;;;;13.25;6.93;;;;;;;;;;5009491;28;20049;-61
2023/03/17 10:12:54;;;;;;;13.60;7.05;;;;;;;;;;5011484;28;20048;-61
2023/03/17 10:15:31;;;;;;;12.40;6.75;;;;;;;;;;5006425;28;20049;-62
2023/03/17 10:17:57;;;;;;;10.75;6.50;;;;;;;;;;5031944;28;20500;-62
2023/03/17 10:20:27;;;;;;;11.40;6.15;;;;;;;;;;5008329;28;20049;-62
2023/03/17 10:22:57;;;;;;;13.35;6.35;;;;;;;;;;5007820;28;20026;-62
2023/03/17 10:25:35;;;;;;;11.63;6.60;;;;;;;;;;5007378;28;20477;-62
2023/03/17 10:28:10;;;;;;;13.52;6.32;;;;;;;;;;5010358;28;20065;-62
2023/03/17 10:30:37;;;;;;;8.38;5.53;;;;;;;;;;5009622;28;20534;-62
2023/03/17 10:33:07;;;;;;;12.27;6.07;;;;;;;;;;5004958;28;20026;-63
2023/03/17 10:35:36;;;;;;;11.57;6.05;;;;;;;;;;5005918;28;20038;-63
2023/03/17 10:38:22;;;;;;;11.13;5.30;;;;;;;;;;5010411;28;20049;-62
2023/03/17 10:41:04;;;;;;;13.82;5.60;;;;;;;;;;5032204;28;20050;-62
2023/03/17 10:43:40;;;;;;;8.65;5.93;;;;;;;;;;5009065;28;20037;-62
2023/03/17 10:46:20;;;;;;;10.88;5.88;;;;;;;;;;5008102;28;20058;-62
2023/03/17 10:48:57;;;;;;;9.55;5.43;;;;;;;;;;5009847;28;20049;-63
2023/03/17 10:51:30;;;;;;;11.23;5.47;;;;;;;;;;5005653;28;20396;-63
2023/03/17 10:54:03;;;;;;;8.35;5.00;;;;;;;;;;5010420;28;20056;-63
2023/03/17 10:56:35;;;;;;;7.72;4.50;;;;;;;;;;5007871;28;20730;-63
2023/03/17 10:59:30;;;;;;;9.88;4.80;;;;;;;;;;5009831;28;20054;-63
2023/03/17 11:01:59;;;;;;;7.28;4.82;;;;;;;;;;5005332;28;20034;-63
2023/03/17 11:04:34;;;;;;;5.65;4.28;;;;;;;;;;5006278;28;20030;-62
2023/03/17 11:07:09;;;;;;;6.07;4.35;;;;;;;;;;5008457;28;20045;-62
2023/03/17 11:09:36;;;;;;;7.15;4.50;;;;;;;;;;5006678;28;20058;-63
2023/03/17 11:12:37;;;;;;;7.65;4.47;;;;;;;;;;5007745;28;20054;-62
2023/03/17 11:15:06;;;;;;;7.15;4.63;;;;;;;;;;5005599;28;20502;-62
2023/03/17 11:17:40;;;;;;;9.23;4.40;;;;;;;;;;5008234;28;20050;-63
2023/03/17 11:20:30;;;;;;;7.38;4.80;;;;;;;;;;5005759;28;20053;-62
2023/03/17 11:23:04;;;;;;;8.27;4.10;;;;;;;;;;5007625;28;20041;-63
2023/03/17 11:25:33;;;;;;;5.68;4.18;;;;;;;;;;5006811;28;20056;-63
2023/03/17 11:28:18;;;;;;;6.75;4.03;;;;;;;;;;5007917;28;20383;-60
2023/03/17 11:31:35;;;;;;;6.82;4.20;;;;;;;;;;5006864;28;20038;-63
2023/03/17 11:34:07;;;;;;;8.23;4.15;;;;;;;;;;5013211;28;20058;-61
2023/03/17 11:36:42;;;;;;;5.95;4.35;;;;;;;;;;5008398;28;20033;-63
2023/03/17 11:39:14;;;;;;;6.85;4.50;;;;;;;;;;5009103;28;20033;-63
2023/03/17 11:42:12;;;;;;;6.25;4.25;;;;;;;;;;5002680;28;20037;-63
2023/03/17 11:45:14;;;;;;;4.30;3.55;;;;;;;;;;5012460;28;20029;-61
2023/03/17 11:48:02;;;;;;;5.90;3.95;;;;;;;;;;5005426;28;20038;-63
2023/03/17 11:50:57;;;;;;;6.72;3.88;;;;;;;;;;5005495;28;20424;-63
2023/03/17 11:53:30;;;;;;;6.25;3.83;;;;;;;;;;5012118;28;20046;-63
2023/03/17 11:56:04;;;;;;;9.73;4.38;;;;;;;;;;5006868;28;20034;-63
2023/03/17 11:58:47;;;;;;;6.25;4.80;;;;;;;;;;5008881;28;20030;-62
2023/03/17 12:01:18;;;;;;;7.80;4.38;;;;;;;;;;5008438;28;20701;-63
2023/03/17 12:03:50;;;;;;;7.30;4.32;;;;;;;;;;5005468;28;20046;-62
2023/03/17 12:06:28;;;;;;;7.35;3.80;;;;;;;;;;5037194;28;20046;-62
2023/03/17 12:09:02;;;;;;;4.75;3.83;;;;;;;;;;5013582;28;20033;-62
2023/03/17 12:11:31;;;;;;;6.95;3.70;;;;;;;;;;5012026;28;20037;-62
2023/03/17 12:14:19;;;;;;;7.35;3.35;;;;;;;;;;5008625;28;20041;-62
2023/03/17 12:16:51;;;;;;;9.48;4.03;;;;;;;;;;5007353;28;20061;-65
2023/03/17 12:19:35;;;;;;;7.18;3.47;;;;;;;;;;5008346;28;20033;-61
2023/03/17 12:22:05;;;;;;;7.07;3.97;;;;;;;;;;5008733;28;20721;-62
2023/03/17 12:24:40;;;;;;;4.43;3.58;;;;;;;;;;5008274;28;20046;-62
2023/03/17 12:27:09;;;;;;;6.53;3.90;;;;;;;;;;4997990;28;20038;-61
2023/03/17 12:29:46;;;;;;;8.40;3.70;;;;;;;;;;5005159;28;20046;-62
2023/03/17 12:32:32;;;;;;;4.68;3.47;;;;;;;;;;5005749;28;20040;-63
2023/03/17 12:35:07;;;;;;;6.53;3.45;;;;;;;;;;5006181;28;20061;-62
2023/03/17 12:37:33;;;;;;;5.93;3.72;;;;;;;;;;5005928;28;20061;-63
2023/03/17 12:40:08;;;;;;;7.97;4.40;;;;;;;;;;5005869;28;20075;-62
2023/03/17 12:42:59;;;;;;;7.43;3.90;;;;;;;;;;5009149;28;20041;-64
2023/03/17 12:45:40;;;;;;;6.65;3.60;;;;;;;;;;5003653;28;20033;-63
2023/03/17 12:48:34;;;;;;;11.30;4.65;;;;;;;;;;5009830;28;20038;-62
2023/03/17 12:51:13;;;;;;;9.75;4.78;;;;;;;;;;5004121;28;20041;-63
2023/03/17 12:53:45;;;;;;;;;;;;;;;;;;5013744;28;20029;-64
2023/03/17 12:56:28;;;;;;;7.03;4.53;;;;;;;;;;5012921;28;19916;-63
2023/03/17 12:59:01;;;;;;;8.57;4.22;;;;;;;;;;5009790;28;20046;-63
2023/03/17 13:01:33;;;;;;;9.48;4.47;;;;;;;;;;5011056;28;20044;-63
2023/03/17 13:04:27;;;;;;;8.20;4.78;;;;;;;;;;4990471;28;20033;-63
2023/03/17 13:07:17;;;;;;;15.05;7.78;;;;;;;;;;5010977;28;20057;-63
2023/03/17 13:09:53;;;;;;;7.90;4.38;;;;;;;;;;5001552;28;20498;-63
2023/03/17 13:12:38;;;;;;;15.40;4.30;;;;;;;;;;5003217;28;20565;-63
2023/03/17 13:15:36;;;;;;;8.20;4.82;;;;;;;;;;5003564;28;20042;-64
2023/03/17 13:18:11;;;;;;;8.05;4.18;;;;;;;;;;5004568;28;20033;-63
2023/03/17 13:20:40;;;;;;;8.38;4.60;;;;;;;;;;5004122;28;20038;-63
2023/03/17 13:23:09;;;;;;;8.38;4.15;;;;;;;;;;5010504;28;20025;-62
2023/03/17 13:25:37;;;;;;;6.82;3.75;;;;;;;;;;5006397;28;20037;-62
2023/03/17 13:28:10;;;;;;;10.18;4.32;;;;;;;;;;5004631;28;20044;-63
2023/03/17 13:30:37;;;;;;;6.05;3.30;;;;;;;;;;5008647;28;20053;-63
2023/03/17 13:33:08;;;;;;;11.13;5.43;;;;;;;;;;5009504;28;20411;-64
2023/03/17 13:35:43;;;;;;;10.85;4.60;;;;;;;;;;5004843;28;20034;-63
2023/03/17 13:38:16;;;;;;;10.43;3.67;;;;;;;;;;5001936;28;20026;-61
2023/03/17 13:40:54;;;;;;;6.68;3.63;;;;;;;;;;5004788;28;20034;-62
2023/03/17 13:43:32;;;;;;;5.93;3.50;;;;;;;;;;5010638;28;20404;-63
2023/03/17 13:46:25;;;;;;;5.60;3.37;;;;;;;;;;5010409;28;20054;-63
2023/03/17 13:48:54;;;;;;;6.55;4.43;;;;;;;;;;5015093;28;20340;-62
2023/03/17 13:51:26;;;;;;;7.80;5.30;;;;;;;;;;5005162;28;20038;-63
2023/03/17 13:53:56;;;;;;;7.13;5.43;;;;;;;;;;5011041;28;20534;-63
2023/03/17 13:56:40;;;;;;;7.90;4.80;;;;;;;;;;5008086;28;20052;-63
2023/03/17 13:59:15;;;;;;;7.78;4.30;;;;;;;;;;5007452;28;20045;-63
2023/03/17 14:01:48;;;;;;;13.57;4.90;;;;;;;;;;5031928;28;20027;-60
2023/03/17 14:04:21;;;;;;;11.57;4.60;;;;;;;;;;5011866;28;20392;-60
2023/03/17 14:06:50;;;;;;;8.98;5.45;;;;;;;;;;5009428;28;20049;-60
2023/03/17 14:09:34;;;;;;;7.57;4.95;;;;;;;;;;5008670;28;20046;-60
2023/03/17 14:12:10;;;;;;;14.07;5.00;;;;;;;;;;5006704;28;20046;-60
2023/03/17 14:14:46;;;;;;;7.13;4.47;;;;;;;;;;5007293;28;20050;-62
2023/03/17 14:17:17;;;;;;;5.53;3.85;;;;;;;;;;5010693;28;20415;-63
2023/03/17 14:20:11;;;;;;;8.68;3.60;;;;;;;;;;5007213;28;20038;-61
2023/03/17 14:22:43;;;;;;;7.90;3.53;;;;;;;;;;5005837;28;20064;-62
2023/03/17 14:25:18;;;;;;;8.70;4.03;;;;;;;;;;5009827;28;20042;-61
2023/03/17 14:27:47;;;;;;;8.38;4.15;;;;;;;;;;5007774;28;20038;-63
2023/03/17 14:30:18;;;;;;;8.38;4.03;;;;;;;;;;5008208;28;20506;-60
2023/03/17 14:32:51;;;;;;;12.23;4.15;;;;;;;;;;5008119;28;20056;-61
2023/03/17 14:35:18;;;;;;;10.30;4.18;;;;;;;;;;5007806;28;20030;-59
2023/03/17 14:37:44;;;;;;;11.38;3.60;;;;;;;;;;5009478;28;20049;-60
2023/03/17 14:40:20;;;;;;;6.85;3.30;;;;;;;;;;5013246;28;20498;-59
2023/03/17 14:42:46;;;;;;;11.07;4.53;;;;;;;;;;5010812;28;20060;-61
2023/03/17 14:45:20;;;;;;;33.13;4.47;;;;;;;;;;5011949;28;20046;-59
2023/03/17 14:47:48;;;;;;;33.72;5.03;;;;;;;;;;5006543;28;20648;-59
2023/03/17 14:50:31;;;;;;;7.40;3.95;;;;;;;;;;5008842;28;20037;-59
2023/03/17 14:52:59;;;;;;;8.48;3.55;;;;;;;;;;5010765;28;20045;-59
2023/03/17 14:55:39;;;;;;;7.43;2.90;;;;;;;;;;5011770;28;20037;-59